Time;durP1;ratioP1;P1;durP2;ratioP2;P2;SDS_P1;SDS_P2;PMS_P1;PMS_P2;Temp;Humidity;BMP_temperature;BMP_pressure;BME280_temperature;BME280_humidity;BME280_pressure;Samples;Min_cycle;Max_cycle;Signal;HPM_P1;HPM_P2
2022/04/06 00:02:12;;;;;;;16.00;8.43;;;;;;;5.14;78.88;96630.66;5006454;28;20061;-58
2022/04/06 00:04:38;;;;;;;10.85;5.85;;;;;;;5.18;78.76;96637.06;5006933;28;20125;-66
2022/04/06 00:07:05;;;;;;;9.25;5.15;;;;;;;4.78;78.54;96575.78;5005399;28;20050;-65
2022/04/06 00:09:32;;;;;;;7.18;4.47;;;;;;;4.89;79.85;96638.09;5007066;28;20054;-62
2022/04/06 00:11:58;;;;;;;9.88;4.40;;;;;;;4.82;80.13;96623.38;5006615;28;20066;-58
2022/04/06 00:14:25;;;;;;;10.50;5.28;;;;;;;4.07;80.81;96521.44;5006223;28;20050;-58
2022/04/06 00:16:52;;;;;;;13.75;6.38;;;;;;;3.96;79.81;96492.88;5006432;28;20054;-66
2022/04/06 00:19:18;;;;;;;8.93;4.22;;;;;;;4.75;79.15;96623.94;5005122;28;20054;-65
2022/04/06 00:21:45;;;;;;;10.40;5.45;;;;;;;4.32;79.70;96566.91;5004587;28;20497;-66
2022/04/06 00:24:12;;;;;;;7.45;4.32;;;;;;;4.76;79.34;96641.97;5006246;28;20054;-60
2022/04/06 00:26:39;;;;;;;8.02;5.00;;;;;;;4.75;79.34;96661.53;5006444;28;20054;-58
2022/04/06 00:29:05;;;;;;;10.82;5.35;;;;;;;4.76;79.35;96652.19;5006577;28;20058;-65
2022/04/06 00:31:32;;;;;;;9.32;5.57;;;;;;;4.64;80.31;96645.53;5004616;28;20060;-66
2022/04/06 00:33:59;;;;;;;9.70;4.93;;;;;;;4.42;79.94;96599.38;5006798;28;20476;-65
2022/04/06 00:36:26;;;;;;;8.50;4.70;;;;;;;4.75;79.65;96645.06;5006074;28;20460;-59
2022/04/06 00:38:52;;;;;;;6.25;3.78;;;;;;;4.66;80.22;96648.72;5006199;28;20139;-61
2022/04/06 00:41:20;;;;;;;10.82;5.57;;;;;;;4.75;79.72;96643.13;5006123;28;20054;-58
2022/04/06 00:44:09;;;;;;;6.50;4.47;;;;;;;4.71;79.77;96638.69;5005906;28;20509;-66
2022/04/06 00:46:36;;;;;;;8.65;4.43;;;;;;;4.68;79.43;96642.88;5005653;28;20492;-59
2022/04/06 00:49:04;;;;;;;9.05;4.85;;;;;;;4.64;78.74;96651.03;5005722;28;20528;-66
2022/04/06 00:51:31;;;;;;;11.93;4.88;;;;;;;4.63;78.93;96637.66;5005583;28;20056;-66
2022/04/06 00:53:58;;;;;;;8.68;4.95;;;;;;;4.12;80.21;96584.25;5006398;28;20050;-66
2022/04/06 00:56:25;;;;;;;11.13;5.38;;;;;;;4.38;81.02;96631.31;5004171;28;20631;-59
2022/04/06 00:58:51;;;;;;;10.35;5.65;;;;;;;4.19;82.50;96639.28;5004301;28;20050;-65
2022/04/06 01:01:18;;;;;;;10.10;4.35;;;;;;;4.13;82.48;96635.16;5005344;28;20060;-58
2022/04/06 01:03:45;;;;;;;10.00;5.65;;;;;;;4.31;81.98;96646.75;5005571;28;20055;-61
2022/04/06 01:06:11;;;;;;;9.73;5.32;;;;;;;4.29;81.87;96638.88;5005614;28;20053;-65
2022/04/06 01:08:38;;;;;;;10.70;5.32;;;;;;;4.30;82.19;96645.16;5005749;28;20053;-65
2022/04/06 01:11:05;;;;;;;10.30;5.70;;;;;;;4.26;82.88;96642.28;5005463;28;20057;-66
2022/04/06 01:13:32;;;;;;;13.35;6.45;;;;;;;3.83;83.01;96595.34;5006073;28;20069;-58
2022/04/06 01:15:58;;;;;;;10.88;5.78;;;;;;;4.25;82.69;96642.63;4992704;28;20046;-66
2022/04/06 01:18:25;;;;;;;11.38;5.47;;;;;;;4.23;82.79;96642.97;4985679;28;20444;-57
2022/04/06 01:20:52;;;;;;;12.32;5.07;;;;;;;4.18;83.50;96651.41;4985763;28;20054;-66
2022/04/06 01:23:18;;;;;;;8.25;4.57;;;;;;;3.58;83.98;96569.03;4985992;28;20054;-58
2022/04/06 01:25:49;;;;;;;9.68;4.90;;;;;;;4.06;84.56;96639.59;4985361;28;20072;-58
2022/04/06 01:28:16;;;;;;;11.18;5.40;;;;;;;4.00;84.84;96640.97;4986157;28;20571;-65
2022/04/06 01:30:43;;;;;;;8.07;4.82;;;;;;;3.13;83.89;96481.38;4985664;28;20311;-58
2022/04/06 01:33:10;;;;;;;9.20;4.22;;;;;;;3.91;84.79;96643.78;4984480;28;20065;-66
2022/04/06 01:35:38;;;;;;;16.25;6.82;;;;;;;4.01;84.90;96639.81;4984708;28;20060;-65
2022/04/06 01:38:05;;;;;;;16.75;8.23;;;;;;;3.77;83.96;96590.44;4985209;28;20061;-60
2022/04/06 01:40:33;;;;;;;14.10;6.10;;;;;;;3.74;83.38;96611.09;4984029;28;20054;-59
2022/04/06 01:43:00;;;;;;;20.85;7.80;;;;;;;3.95;84.06;96652.91;4985263;28;20061;-65
2022/04/06 01:45:26;;;;;;;13.20;6.10;;;;;;;3.55;85.69;96607.22;4984076;28;20056;-65
2022/04/06 01:47:53;;;;;;;11.48;5.60;;;;;;;3.99;83.92;96651.13;4984520;28;20065;-61
2022/04/06 01:53:05;;;;;;;11.52;6.57;;;;;;;3.69;84.21;96663.31;4985179;28;20106;-65
2022/04/06 01:55:32;;;;;;;11.50;6.45;;;;;;;3.66;85.35;96664.00;4985399;28;20077;-59
2022/04/06 01:57:59;;;;;;;14.43;6.32;;;;;;;3.36;85.48;96626.88;4984177;28;20557;-66
2022/04/06 02:00:27;;;;;;;14.55;6.53;;;;;;;3.08;86.13;96598.44;4983863;28;20560;-65
2022/04/06 02:02:54;;;;;;;12.20;7.07;;;;;;;3.25;86.13;96606.53;4985360;28;20050;-58
2022/04/06 02:05:22;;;;;;;14.85;7.03;;;;;;;3.59;86.78;96660.97;4985260;28;20050;-66
2022/04/06 02:07:49;;;;;;;14.25;8.13;;;;;;;3.31;88.19;96711.91;4985512;28;20046;-59
2022/04/06 02:10:17;;;;;;;17.70;9.25;;;;;;;3.63;88.43;96659.19;4984806;28;20552;-65
2022/04/06 02:12:44;;;;;;;15.68;7.05;;;;;;;3.64;87.87;96660.78;4984910;28;20513;-66
2022/04/06 02:15:12;;;;;;;17.98;7.57;;;;;;;3.66;87.47;96663.19;4990188;28;20133;-65
2022/04/06 02:17:40;;;;;;;19.95;9.20;;;;;;;3.71;87.08;96663.78;5004382;28;20572;-58
2022/04/06 02:20:07;;;;;;;15.60;7.32;;;;;;;3.48;86.21;96613.25;5004051;28;20046;-58
2022/04/06 02:22:34;;;;;;;79.00;28.95;;;;;;;3.79;86.85;96651.97;5004818;28;20053;-65
2022/04/06 02:25:01;;;;;;;18.80;8.95;;;;;;;3.86;85.98;96657.69;5004536;28;20053;-66
2022/04/06 02:27:27;;;;;;;15.40;7.03;;;;;;;3.90;84.65;96646.84;5004255;28;20128;-60
2022/04/06 02:29:54;;;;;;;12.60;6.28;;;;;;;3.49;84.82;96601.19;5003876;28;20061;-58
2022/04/06 02:32:21;;;;;;;15.40;7.15;;;;;;;3.86;85.17;96646.72;5004049;28;20053;-60
2022/04/06 02:34:52;;;;;;;14.32;6.65;;;;;;;3.86;85.36;96652.19;5004281;28;20140;-66
2022/04/06 02:37:18;;;;;;;12.88;6.97;;;;;;;3.73;84.65;96636.84;5004173;28;20060;-66
2022/04/06 02:39:45;;;;;;;11.73;5.80;;;;;;;3.73;85.04;96636.84;5003947;28;20058;-66
2022/04/06 02:42:12;;;;;;;18.88;9.05;;;;;;;3.86;84.62;96665.91;5004391;28;20049;-59
2022/04/06 02:44:39;;;;;;;14.43;8.27;;;;;;;3.78;85.95;96676.94;5002971;28;20049;-60
2022/04/06 02:47:06;;;;;;;13.50;7.00;;;;;;;3.83;86.33;96680.28;5001686;28;20469;-65
2022/04/06 02:49:32;;;;;;;11.25;6.18;;;;;;;3.78;88.00;96661.31;5004014;28;20050;-58
2022/04/06 02:51:59;;;;;;;13.10;7.32;;;;;;;3.27;86.12;96563.22;5002491;28;20046;-66
2022/04/06 02:54:26;;;;;;;14.75;6.82;;;;;;;3.87;86.07;96648.31;5003907;28;20061;-66
2022/04/06 02:56:52;;;;;;;9.73;5.45;;;;;;;3.80;85.92;96659.03;5003943;28;20049;-58
2022/04/06 02:59:19;;;;;;;11.35;6.07;;;;;;;3.44;86.18;96612.31;5002299;28;20054;-60
2022/04/06 03:01:46;;;;;;;9.07;5.63;;;;;;;3.84;84.77;96661.91;5004285;28;20124;-58
2022/04/06 03:04:12;;;;;;;15.32;7.20;;;;;;;3.04;85.31;96542.78;5004002;28;20052;-59
2022/04/06 03:06:40;;;;;;;47.92;21.67;;;;;;;3.71;84.89;96658.31;5003771;28;20058;-66
2022/04/06 03:09:07;;;;;;;46.25;21.67;;;;;;;3.73;84.26;96664.25;5003584;28;20510;-65
2022/04/06 03:11:36;;;;;;;17.23;8.65;;;;;;;3.33;85.86;96610.31;5002188;28;20133;-60
2022/04/06 03:14:03;;;;;;;15.65;8.15;;;;;;;3.71;86.93;96666.53;5003686;28;20145;-66
2022/04/06 03:16:30;;;;;;;14.88;6.45;;;;;;;3.73;86.92;96677.94;4987220;28;20457;-66
2022/04/06 03:18:57;;;;;;;11.50;6.65;;;;;;;3.00;86.15;96570.00;4984485;28;20077;-66
2022/04/06 03:21:23;;;;;;;15.75;7.28;;;;;;;3.62;85.98;96684.94;4983936;28;20061;-61
2022/04/06 03:23:50;;;;;;;15.65;9.02;;;;;;;3.58;87.57;96678.56;4983866;28;20050;-58
2022/04/06 03:26:17;;;;;;;14.25;9.15;;;;;;;3.17;88.25;96607.38;4983977;28;20050;-61
2022/04/06 03:28:44;;;;;;;10.68;5.75;;;;;;;3.64;87.13;96699.13;4999156;28;20068;-66
2022/04/06 03:31:10;;;;;;;13.27;6.40;;;;;;;3.65;87.88;96692.50;5006596;28;20053;-60
2022/04/06 03:33:37;;;;;;;17.30;6.78;;;;;;;3.74;86.25;96693.25;5003240;28;20093;-65
2022/04/06 03:36:04;;;;;;;20.63;8.68;;;;;;;3.25;86.20;96631.16;5003066;28;20077;-66
2022/04/06 03:38:31;;;;;;;15.88;7.75;;;;;;;3.52;86.99;96690.84;5003717;28;20085;-57
2022/04/06 03:40:58;;;;;;;10.95;6.65;;;;;;;3.64;87.85;96690.91;5003676;28;20056;-67
2022/04/06 03:43:24;;;;;;;17.15;8.25;;;;;;;3.48;85.34;96678.16;5003705;28;20050;-59
2022/04/06 03:45:52;;;;;;;23.10;11.13;;;;;;;3.57;85.58;96703.53;5003174;28;20050;-57
2022/04/06 03:48:21;;;;;;;23.52;11.30;;;;;;;3.53;86.40;96703.41;5003106;28;20061;-57
2022/04/06 03:50:50;;;;;;;26.67;14.10;;;;;;;3.55;85.92;96701.13;5003223;28;20080;-67
2022/04/06 03:53:17;;;;;;;34.80;17.35;;;;;;;3.43;85.53;96698.31;5003360;28;20057;-67
2022/04/06 03:55:44;;;;;;;24.60;13.57;;;;;;;3.05;86.43;96648.38;5002518;28;20060;-61
2022/04/06 03:58:11;;;;;;;28.33;14.73;;;;;;;3.33;88.20;96698.72;5004188;28;20124;-58
2022/04/06 04:00:37;;;;;;;25.67;13.18;;;;;;;3.41;88.67;96695.13;5006627;28;20054;-58
2022/04/06 04:03:05;;;;;;;25.85;14.00;;;;;;;3.47;88.19;96677.34;5006940;28;20050;-66
2022/04/06 04:05:33;;;;;;;23.98;12.32;;;;;;;3.62;88.25;96717.81;5005347;28;20134;-65
2022/04/06 04:07:59;;;;;;;35.35;16.65;;;;;;;3.22;87.53;96637.28;5006884;28;20057;-66
2022/04/06 04:10:26;;;;;;;33.80;14.77;;;;;;;3.68;87.36;96705.53;5006448;28;20069;-66
2022/04/06 04:12:53;;;;;;;66.40;23.50;;;;;;;3.69;86.40;96707.13;5007115;28;20057;-60
2022/04/06 04:15:19;;;;;;;30.52;13.88;;;;;;;3.71;86.52;96704.06;5012909;28;20125;-65
2022/04/06 04:17:46;;;;;;;17.45;9.48;;;;;;;3.60;87.80;96681.75;5025889;28;20060;-58
2022/04/06 04:20:13;;;;;;;15.80;8.02;;;;;;;3.28;88.71;96657.84;5026070;28;20058;-66
2022/04/06 04:22:40;;;;;;;14.15;6.07;;;;;;;3.18;88.06;96712.97;5026209;28;20049;-65
2022/04/06 04:25:07;;;;;;;12.13;6.35;;;;;;;3.09;88.33;96600.03;5024701;28;20421;-66
2022/04/06 04:27:33;;;;;;;16.00;7.97;;;;;;;3.95;87.03;96698.72;5026665;28;20366;-60
2022/04/06 04:30:00;;;;;;;24.42;10.52;;;;;;;4.07;86.44;96710.50;5025798;28;21252;-57
2022/04/06 04:32:33;;;;;;;22.00;9.02;;;;;;;4.22;84.69;96718.09;5025950;28;20511;-59
2022/04/06 04:35:03;;;;;;;19.55;8.27;;;;;;;4.25;84.54;96720.16;5025797;28;20057;-57
2022/04/06 04:37:30;;;;;;;13.50;7.00;;;;;;;4.37;83.91;96717.47;5024594;28;20059;-57
2022/04/06 04:39:57;;;;;;;20.20;7.60;;;;;;;4.44;83.37;96722.41;5025356;28;20056;-65
2022/04/06 04:42:24;;;;;;;28.20;10.95;;;;;;;4.55;82.54;96718.88;5025743;28;20057;-65
2022/04/06 04:44:51;;;;;;;26.52;11.85;;;;;;;4.46;82.89;96709.94;5025621;28;20350;-65
2022/04/06 04:47:18;;;;;;;24.27;9.82;;;;;;;4.74;82.06;96731.25;5024041;28;20060;-65
2022/04/06 04:49:45;;;;;;;19.13;7.57;;;;;;;4.81;81.91;96739.72;5025902;28;20049;-57
2022/04/06 04:52:11;;;;;;;32.88;13.68;;;;;;;4.75;80.95;96688.97;5025865;28;20432;-66
2022/04/06 04:54:38;;;;;;;22.52;11.85;;;;;;;5.22;80.14;96720.31;5025289;28;20068;-58
2022/04/06 04:57:05;;;;;;;27.40;11.27;;;;;;;5.24;78.98;96701.56;5025779;28;20049;-65
2022/04/06 04:59:32;;;;;;;28.85;12.25;;;;;;;5.09;78.21;96678.34;5025871;28;20060;-58
2022/04/06 05:01:58;;;;;;;30.48;14.32;;;;;;;5.55;77.30;96730.00;5024025;28;20428;-69
2022/04/06 05:04:25;;;;;;;29.83;13.60;;;;;;;5.84;76.37;96816.91;5025122;28;20587;-68
2022/04/06 05:06:53;;;;;;;29.75;15.13;;;;;;;5.82;76.16;96750.47;5025969;28;20538;-67
2022/04/06 05:09:19;;;;;;;29.10;16.83;;;;;;;5.91;76.42;96751.16;5025033;28;20050;-59
2022/04/06 05:11:46;;;;;;;26.92;14.77;;;;;;;6.00;76.71;96751.81;5024970;28;20049;-58
2022/04/06 05:14:13;;;;;;;34.35;17.33;;;;;;;5.46;76.59;96657.13;5024109;28;20053;-58
2022/04/06 05:16:40;;;;;;;49.60;21.20;;;;;;;6.09;76.62;96717.53;5019996;28;20072;-66
2022/04/06 05:19:06;;;;;;;38.50;18.58;;;;;;;6.28;75.93;96727.09;5005148;28;20532;-67
2022/04/06 05:21:33;;;;;;;27.25;13.52;;;;;;;6.28;76.03;96699.56;5004076;28;20061;-57
2022/04/06 05:23:59;;;;;;;24.20;11.55;;;;;;;6.90;75.41;96758.31;5005698;28;20053;-67
2022/04/06 05:26:26;;;;;;;21.45;9.90;;;;;;;6.72;73.61;96712.97;5003609;28;20168;-67
2022/04/06 05:28:53;;;;;;;22.13;9.48;;;;;;;6.98;71.89;96726.25;5005606;28;20058;-66
2022/04/06 05:31:21;;;;;;;23.00;9.82;;;;;;;7.05;71.76;96732.72;5004703;28;20200;-65
2022/04/06 05:33:48;;;;;;;21.92;9.07;;;;;;;7.53;70.83;96781.94;5005097;28;20054;-59
2022/04/06 05:36:18;;;;;;;26.02;11.25;;;;;;;7.70;70.58;96776.06;5004444;28;20058;-59
2022/04/06 05:38:45;;;;;;;49.80;18.25;;;;;;;7.93;68.84;96759.66;5019695;28;20054;-66
2022/04/06 05:41:12;;;;;;;47.13;19.92;;;;;;;8.14;67.49;96762.06;5004950;28;20050;-58
2022/04/06 05:43:39;;;;;;;21.73;10.07;;;;;;;8.38;66.98;96783.88;5005076;28;20046;-58
2022/04/06 05:46:05;;;;;;;21.15;9.90;;;;;;;8.46;66.25;96774.59;5004807;28;20058;-67
2022/04/06 05:48:32;;;;;;;16.75;10.02;;;;;;;8.52;66.41;96751.84;5004560;28;20050;-57
2022/04/06 05:51:01;;;;;;;16.85;10.15;;;;;;;8.85;65.77;96765.16;5004590;28;20171;-67
2022/04/06 05:53:27;;;;;;;18.33;9.73;;;;;;;9.00;65.52;96772.50;5004513;28;20061;-58
2022/04/06 05:55:54;;;;;;;20.52;11.30;;;;;;;8.85;65.62;96726.47;5004429;28;20520;-57
2022/04/06 05:58:21;;;;;;;25.90;12.88;;;;;;;8.94;66.42;96715.97;5004698;28;20050;-67
2022/04/06 06:00:47;;;;;;;20.67;11.65;;;;;;;9.48;65.80;96788.41;5003009;28;20054;-59
2022/04/06 06:03:14;;;;;;;17.90;9.25;;;;;;;7.21;65.65;96468.31;5003408;28;20065;-59
2022/04/06 06:05:41;;;;;;;19.08;8.50;;;;;;;8.69;64.46;96612.56;5006594;28;20049;-63
2022/04/06 06:08:16;;;;;;;26.25;8.63;;;;;;;9.88;63.79;96791.41;5009844;28;20053;-59
2022/04/06 06:10:43;;;;;;;11.43;7.50;;;;;;;10.01;62.36;96781.72;5018876;28;20069;-66
2022/04/06 06:13:10;;;;;;;15.20;7.93;;;;;;;9.69;62.07;96705.75;5002278;28;20058;-65
2022/04/06 06:15:37;;;;;;;12.90;8.95;;;;;;;10.19;61.83;96774.53;5002136;28;20064;-65
2022/04/06 06:18:04;;;;;;;16.10;8.45;;;;;;;9.85;60.76;96687.03;5003781;28;20057;-59
2022/04/06 06:20:30;;;;;;;12.77;7.85;;;;;;;9.93;59.06;96657.47;5003433;28;20052;-58
2022/04/06 06:22:57;;;;;;;12.73;7.68;;;;;;;10.13;58.06;96653.44;5015081;28;20046;-68
2022/04/06 06:25:24;;;;;;;17.48;8.35;;;;;;;10.86;57.64;96752.41;5023325;28;20452;-61
2022/04/06 06:27:50;;;;;;;12.38;6.93;;;;;;;10.93;57.68;96769.09;5023554;28;20049;-68
2022/04/06 06:30:17;;;;;;;12.43;8.35;;;;;;;11.02;57.29;96786.25;5022542;28;20620;-66
2022/04/06 06:32:45;;;;;;;14.57;9.45;;;;;;;10.81;58.20;96683.47;5023145;28;20559;-59
2022/04/06 06:35:12;;;;;;;19.92;10.73;;;;;;;10.97;57.82;96698.66;5020135;28;20062;-66
2022/04/06 06:37:47;;;;;;;15.10;9.27;;;;;;;10.97;56.47;96682.03;5022275;28;20068;-66
2022/04/06 06:40:13;;;;;;;17.20;9.13;;;;;;;11.44;55.52;96712.59;5022925;28;20057;-59
2022/04/06 06:42:40;;;;;;;15.73;9.32;;;;;;;12.29;54.60;96769.50;5024026;28;20049;-57
2022/04/06 06:45:07;;;;;;;20.55;9.63;;;;;;;11.99;54.34;96721.72;5022991;28;20069;-60
2022/04/06 06:47:34;;;;;;;15.30;8.95;;;;;;;12.22;53.69;96719.47;5023362;28;20075;-59
2022/04/06 06:50:02;;;;;;;14.95;7.72;;;;;;;12.51;51.93;96749.00;5021405;28;20049;-65
2022/04/06 06:52:29;;;;;;;12.60;8.20;;;;;;;12.44;51.03;96704.50;5022906;28;20049;-67
2022/04/06 06:54:55;;;;;;;11.30;7.35;;;;;;;13.00;51.13;96760.34;5020328;28;20088;-59
2022/04/06 06:57:22;;;;;;;13.38;6.03;;;;;;;13.10;50.15;96759.53;5023074;28;20379;-67
2022/04/06 06:59:49;;;;;;;9.05;6.40;;;;;;;13.33;48.25;96757.22;5007481;28;20128;-69
2022/04/06 07:02:15;;;;;;;10.40;6.25;;;;;;;13.37;48.04;96730.19;5001912;28;20088;-63
2022/04/06 07:04:42;;;;;;;8.63;5.97;;;;;;;13.58;48.57;96758.03;5002708;28;20053;-58
2022/04/06 07:07:08;;;;;;;12.93;5.30;;;;;;;13.56;48.17;96766.00;5003267;28;20045;-65
2022/04/06 07:09:39;;;;;;;14.07;5.80;;;;;;;13.72;48.17;96759.25;5002564;28;20053;-60
2022/04/06 07:12:06;;;;;;;23.58;9.45;;;;;;;14.08;47.66;96758.03;5001530;28;20501;-60
2022/04/06 07:14:33;;;;;;;8.50;6.07;;;;;;;13.60;47.38;96761.22;5002754;28;20519;-59
2022/04/06 07:17:00;;;;;;;9.45;5.13;;;;;;;13.98;46.33;96756.84;5017964;28;20061;-57
2022/04/06 07:19:27;;;;;;;7.55;5.15;;;;;;;13.40;45.86;96670.19;5021577;28;20054;-57
2022/04/06 07:21:53;;;;;;;12.20;5.65;;;;;;;14.03;46.17;96714.69;5021082;28;20060;-66
2022/04/06 07:24:20;;;;;;;10.40;5.68;;;;;;;14.57;45.50;96764.34;5001648;28;20050;-58
2022/04/06 07:26:47;;;;;;;12.85;5.05;;;;;;;14.75;45.18;96759.47;5003026;28;20065;-65
2022/04/06 07:29:15;;;;;;;9.07;5.22;;;;;;;14.88;45.80;96765.41;5003146;28;20050;-64
2022/04/06 07:31:42;;;;;;;9.88;4.97;;;;;;;14.82;45.78;96759.47;5001309;28;20159;-68
2022/04/06 07:34:09;;;;;;;6.30;4.28;;;;;;;14.58;44.84;96714.94;5005315;28;20097;-65
2022/04/06 07:36:37;;;;;;;7.95;4.82;;;;;;;14.59;45.96;96763.94;5006438;28;20069;-57
2022/04/06 07:39:04;;;;;;;8.27;4.50;;;;;;;14.83;45.32;96754.66;5006921;28;20069;-56
2022/04/06 07:41:32;;;;;;;7.57;4.70;;;;;;;14.92;45.47;96741.09;5006410;28;20049;-57
2022/04/06 07:44:00;;;;;;;6.28;4.88;;;;;;;15.00;45.57;96759.38;5006870;28;20432;-67
2022/04/06 07:46:26;;;;;;;5.47;4.22;;;;;;;14.87;45.56;96755.47;5006426;28;20068;-61
2022/04/06 07:48:53;;;;;;;7.25;4.72;;;;;;;15.14;45.32;96746.13;5006258;28;20053;-57
2022/04/06 07:51:20;;;;;;;5.95;4.43;;;;;;;15.42;44.79;96767.53;5006356;28;20136;-58
2022/04/06 07:53:46;;;;;;;7.63;5.07;;;;;;;15.70;43.48;96764.53;5006373;28;20058;-57
2022/04/06 07:56:18;;;;;;;6.07;4.93;;;;;;;15.84;43.97;96761.63;5006343;28;20050;-57
2022/04/06 07:58:44;;;;;;;6.45;5.22;;;;;;;15.93;43.16;96745.19;5012328;28;20049;-65
2022/04/06 08:01:11;;;;;;;8.43;5.18;;;;;;;15.96;43.39;96733.22;5026050;28;20570;-72
2022/04/06 08:03:38;;;;;;;5.30;4.50;;;;;;;16.08;42.63;96757.03;5026119;28;20053;-58
2022/04/06 08:06:05;;;;;;;5.68;4.85;;;;;;;15.59;42.94;96705.19;5026397;28;20444;-70
2022/04/06 08:08:32;;;;;;;5.75;4.53;;;;;;;15.62;41.85;96684.81;5025090;28;20058;-69
2022/04/06 08:10:59;;;;;;;7.10;4.78;;;;;;;16.14;41.58;96745.00;5026243;28;20428;-59
2022/04/06 08:13:26;;;;;;;6.20;5.03;;;;;;;16.47;41.03;96751.91;5024054;28;20080;-70
2022/04/06 08:15:53;;;;;;;6.55;5.07;;;;;;;16.71;40.99;96744.44;5018102;28;20614;-70
2022/04/06 08:18:22;;;;;;;6.25;4.78;;;;;;;16.85;40.70;96733.88;5005945;28;20108;-59
2022/04/06 08:20:49;;;;;;;10.18;6.03;;;;;;;16.61;40.12;96702.19;5005825;28;20547;-59
2022/04/06 08:23:20;;;;;;;8.98;6.32;;;;;;;16.14;40.70;96682.72;5004938;28;20580;-58
2022/04/06 08:25:49;;;;;;;6.63;4.75;;;;;;;16.40;40.71;96705.22;5004136;28;20049;-70
2022/04/06 08:28:18;;;;;;;22.13;10.20;;;;;;;17.07;40.00;96742.78;5004486;28;20062;-70
2022/04/06 08:31:00;;;;;;;8.87;6.00;;;;;;;17.36;39.14;96735.56;5004266;28;20061;-71
2022/04/06 08:33:27;;;;;;;4.88;4.22;;;;;;;17.27;38.14;96693.31;5017472;28;20811;-69
2022/04/06 08:36:16;;;;;;;6.75;4.55;;;;;;;17.62;38.20;96734.84;5005040;28;20111;-59
2022/04/06 08:38:43;;;;;;;8.10;5.22;;;;;;;17.42;37.21;96728.31;5005337;28;20140;-59
2022/04/06 08:41:10;;;;;;;7.35;4.60;;;;;;;17.37;37.74;96720.38;5006272;28;20045;-59
2022/04/06 08:43:37;;;;;;;6.95;4.55;;;;;;;17.44;36.75;96721.09;5005734;28;20055;-59
2022/04/06 08:46:11;;;;;;;4.97;4.18;;;;;;;17.59;36.79;96702.06;5003273;28;20054;-60
2022/04/06 08:48:39;;;;;;;6.28;4.93;;;;;;;17.72;36.26;96717.06;5004874;28;20104;-67
2022/04/06 08:51:11;;;;;;;7.88;5.95;;;;;;;17.94;34.35;96726.72;5005446;28;20068;-67
2022/04/06 08:53:45;;;;;;;4.93;3.92;;;;;;;17.29;29.83;96613.28;5005561;28;20061;-62
2022/04/06 08:56:13;;;;;;;5.40;4.30;;;;;;;18.02;33.14;96691.72;5005298;28;20070;-58
2022/04/06 08:58:41;;;;;;;7.50;4.63;;;;;;;17.79;34.50;96702.94;5004073;28;20046;-59
2022/04/06 09:01:08;;;;;;;9.55;6.72;;;;;;;17.57;32.67;96710.91;5005145;28;20064;-66
2022/04/06 09:03:36;;;;;;;6.85;4.65;;;;;;;17.72;33.72;96686.25;5005441;28;20062;-58
2022/04/06 09:06:08;;;;;;;4.55;4.05;;;;;;;18.06;32.72;96700.88;5005371;28;20524;-59
2022/04/06 09:08:41;;;;;;;5.10;3.75;;;;;;;18.10;31.28;96695.97;5005549;28;20144;-67
2022/04/06 09:11:10;;;;;;;4.00;3.60;;;;;;;18.17;31.74;96695.84;5005141;28;20119;-60
2022/04/06 09:13:38;;;;;;;3.88;3.58;;;;;;;18.19;30.39;96698.22;5005434;28;20053;-67
2022/04/06 09:16:08;;;;;;;3.92;3.63;;;;;;;17.84;29.63;96702.44;5003794;28;20093;-61
2022/04/06 09:18:45;;;;;;;3.85;3.55;;;;;;;18.04;28.80;96658.44;5004944;28;20045;-63
2022/04/06 09:21:17;;;;;;;3.28;3.08;;;;;;;18.38;28.51;96695.50;5005221;28;20050;-59
2022/04/06 09:23:48;;;;;;;4.60;3.63;;;;;;;18.55;29.02;96691.56;5005170;28;20054;-67
2022/04/06 09:26:20;;;;;;;13.45;5.97;;;;;;;18.38;29.47;96625.38;5003749;28;20050;-60
2022/04/06 09:28:49;;;;;;;4.15;3.70;;;;;;;18.81;29.07;96670.97;5005359;28;20422;-68
2022/04/06 09:31:17;;;;;;;3.58;3.35;;;;;;;18.98;29.54;96672.63;5005157;28;20065;-67
2022/04/06 09:34:00;;;;;;;4.70;3.63;;;;;;;18.77;30.12;96663.84;5004850;28;20058;-68
2022/04/06 09:36:29;;;;;;;3.60;3.30;;;;;;;19.10;30.20;96674.75;5004444;28;20140;-59
2022/04/06 09:38:56;;;;;;;3.85;3.55;;;;;;;18.84;29.55;96644.81;5005368;28;20507;-60
2022/04/06 09:41:23;;;;;;;4.45;3.30;;;;;;;19.38;29.76;96668.50;5003060;28;20054;-60
2022/04/06 09:43:51;;;;;;;4.10;3.70;;;;;;;19.61;28.77;96669.56;5004726;28;20060;-61
2022/04/06 09:49:14;;;;;;;6.10;3.92;;;;;;;19.59;29.05;96684.06;5004906;28;20050;-68
2022/04/06 09:51:45;;;;;;;3.83;3.63;;;;;;;19.26;28.13;96620.63;5004777;28;20054;-60
2022/04/06 09:54:12;;;;;;;3.67;3.38;;;;;;;19.75;28.34;96657.97;5005859;28;21013;-59
2022/04/06 09:56:41;;;;;;;3.83;3.45;;;;;;;19.21;28.69;96657.66;5003035;28;20429;-62
2022/04/06 09:59:09;;;;;;;4.57;3.38;;;;;;;19.43;28.72;96656.75;5004567;28;20054;-68
2022/04/06 10:01:40;;;;;;;3.45;3.15;;;;;;;19.73;28.58;96650.00;5004398;28;20050;-68
2022/04/06 10:04:10;;;;;;;3.80;3.50;;;;;;;19.68;27.87;96593.53;5003733;28;20064;-58
2022/04/06 10:06:39;;;;;;;4.30;3.90;;;;;;;19.62;28.71;96634.66;5004223;28;20069;-67
2022/04/06 10:09:08;;;;;;;3.53;3.22;;;;;;;19.05;28.59;96590.22;5005169;28;20050;-68
2022/04/06 10:11:37;;;;;;;4.47;3.90;;;;;;;19.26;28.00;96598.94;5004097;28;20053;-67
2022/04/06 10:14:06;;;;;;;4.25;3.83;;;;;;;19.68;27.66;96653.31;5004859;28;20057;-62
2022/04/06 10:16:36;;;;;;;3.53;3.25;;;;;;;19.79;27.13;96642.59;5013525;28;20084;-67
2022/04/06 10:19:06;;;;;;;3.63;3.33;;;;;;;19.83;27.47;96642.53;5024069;28;20049;-59
2022/04/06 10:21:57;;;;;;;5.45;3.55;;;;;;;20.04;27.58;96637.16;5023856;28;20060;-59
2022/04/06 10:24:40;;;;;;;4.32;3.92;;;;;;;20.10;27.61;96632.56;5023664;28;20053;-60
2022/04/06 10:27:09;;;;;;;4.05;3.55;;;;;;;20.42;27.19;96623.28;5024036;28;20538;-60
2022/04/06 10:30:11;;;;;;;4.38;3.75;;;;;;;20.53;27.31;96627.34;5022859;28;20065;-66
2022/04/06 10:32:44;;;;;;;7.13;3.75;;;;;;;20.49;27.21;96606.19;5024094;28;20057;-68
2022/04/06 10:35:37;;;;;;;3.80;3.50;;;;;;;20.72;27.00;96622.81;5018543;28;20504;-59
2022/04/06 10:38:04;;;;;;;3.85;3.47;;;;;;;20.05;27.69;96609.81;5012606;28;20455;-58
2022/04/06 10:40:43;;;;;;;8.10;3.72;;;;;;;20.37;27.23;96615.38;5018821;28;20061;-67
2022/04/06 10:43:34;;;;;;;5.45;3.78;;;;;;;20.51;27.20;96614.97;5018263;28;20057;-60
2022/04/06 10:46:02;;;;;;;3.55;3.33;;;;;;;20.29;27.61;96580.22;5004030;28;20054;-58
2022/04/06 10:48:29;;;;;;;4.72;3.67;;;;;;;20.16;27.67;96570.97;5006042;28;20045;-65
2022/04/06 10:51:33;;;;;;;6.72;5.07;;;;;;;20.41;27.81;96613.25;5010905;28;20058;-66
2022/04/06 10:54:21;;;;;;;;;;;;;;;20.13;27.73;96612.00;5012133;28;20060;-68
2022/04/06 10:56:48;;;;;;;7.75;3.92;;;;;;;20.53;28.62;96606.88;5013994;28;19929;-65
2022/04/06 10:59:19;;;;;;;4.50;4.10;;;;;;;20.79;27.74;96608.50;5023359;28;20045;-59
2022/04/06 11:02:27;;;;;;;5.40;3.78;;;;;;;20.98;28.44;96599.09;5023332;28;20084;-58
2022/04/06 11:04:54;;;;;;;4.10;3.80;;;;;;;21.25;27.86;96596.63;5021449;28;20436;-59
2022/04/06 11:10:22;;;;;;;4.40;4.10;;;;;;;20.88;29.35;96569.22;5014048;28;20081;-66
2022/04/06 11:13:00;;;;;;;4.35;3.92;;;;;;;21.50;27.82;96590.97;5013301;28;20049;-66
2022/04/06 11:15:41;;;;;;;4.35;3.92;;;;;;;21.69;27.56;96595.56;5008327;28;20571;-68
2022/04/06 11:18:46;;;;;;;5.28;3.80;;;;;;;21.80;27.75;96587.56;5020129;28;20053;-63
2022/04/06 11:21:14;;;;;;;5.07;4.00;;;;;;;22.01;27.79;96580.41;5022004;28;20669;-57
2022/04/06 11:23:42;;;;;;;5.40;4.50;;;;;;;22.21;27.35;96576.03;5021693;28;20060;-58
2022/04/06 11:26:08;;;;;;;4.40;4.10;;;;;;;22.14;26.84;96548.09;5024866;28;20504;-59
2022/04/06 11:28:35;;;;;;;4.80;4.40;;;;;;;22.30;26.62;96578.16;5014149;28;20099;-60
2022/04/06 11:31:03;;;;;;;4.88;4.40;;;;;;;21.98;27.26;96570.03;5014310;28;20049;-69
2022/04/06 11:33:40;;;;;;;5.15;4.40;;;;;;;20.92;27.57;96516.41;5016388;28;20520;-58
2022/04/06 11:36:19;;;;;;;3.95;3.65;;;;;;;21.24;27.61;96555.63;5020621;28;20061;-64
2022/04/06 11:38:50;;;;;;;4.20;3.95;;;;;;;21.02;28.34;96473.81;5011896;28;20064;-66
2022/04/06 11:41:20;;;;;;;5.43;4.95;;;;;;;21.58;28.00;96496.47;5015515;28;20056;-70
2022/04/06 11:43:51;;;;;;;7.90;4.50;;;;;;;21.76;27.55;96482.59;5020853;28;20052;-67
2022/04/06 11:46:18;;;;;;;4.80;4.40;;;;;;;22.14;27.24;96544.47;5018244;28;20472;-60
2022/04/06 11:48:45;;;;;;;4.20;3.90;;;;;;;21.26;27.95;96502.41;5024200;28;20057;-59